sensor_id;sensor_type;location;lat;lon;timestamp;temperature;humidity
19025;DHT22;9645;51.448;6.260;2023-09-19T09:42:33;28.00;99.90
19025;DHT22;9645;51.448;6.260;2023-09-19T09:45:16;27.80;99.90
19025;DHT22;9645;51.448;6.260;2023-09-19T09:47:45;27.40;99.90
19025;DHT22;9645;51.448;6.260;2023-09-19T09:50:28;26.80;99.90
19025;DHT22;9645;51.448;6.260;2023-09-19T09:53:19;27.20;99.90
19025;DHT22;9645;51.448;6.260;2023-09-19T09:56:00;27.90;99.90
19025;DHT22;9645;51.448;6.260;2023-09-19T09:58:28;27.80;99.90
19025;DHT22;9645;51.448;6.260;2023-09-19T10:00:59;27.30;99.90
19025;DHT22;9645;51.448;6.260;2023-09-19T10:03:34;27.30;99.90
19025;DHT22;9645;51.448;6.260;2023-09-19T10:06:06;26.30;99.90
19025;DHT22;9645;51.448;6.260;2023-09-19T10:09:03;25.50;99.90
19025;DHT22;9645;51.448;6.260;2023-09-19T10:11:43;25.60;99.90
19025;DHT22;9645;51.448;6.260;2023-09-19T10:14:11;26.50;99.90
19025;DHT22;9645;51.448;6.260;2023-09-19T10:16:47;27.10;99.90
19025;DHT22;9645;51.448;6.260;2023-09-19T10:19:21;27.20;99.90
19025;DHT22;9645;51.448;6.260;2023-09-19T10:21:50;27.10;99.90
19025;DHT22;9645;51.448;6.260;2023-09-19T10:24:18;26.50;99.90
19025;DHT22;9645;51.448;6.260;2023-09-19T10:26:45;26.00;99.90
19025;DHT22;9645;51.448;6.260;2023-09-19T10:29:17;26.20;99.90
19025;DHT22;9645;51.448;6.260;2023-09-19T10:31:47;26.20;99.90
19025;DHT22;9645;51.448;6.260;2023-09-19T10:34:17;26.50;99.90
19025;DHT22;9645;51.448;6.260;2023-09-19T10:36:45;27.10;99.90
19025;DHT22;9645;51.448;6.260;2023-09-19T10:39:15;27.50;99.90
19025;DHT22;9645;51.448;6.260;2023-09-19T10:41:49;27.50;99.90
19025;DHT22;9645;51.448;6.260;2023-09-19T10:44:21;27.90;99.90
19025;DHT22;9645;51.448;6.260;2023-09-19T10:46:52;28.20;99.90
19025;DHT22;9645;51.448;6.260;2023-09-19T10:49:19;28.00;99.90
19025;DHT22;9645;51.448;6.260;2023-09-19T10:51:50;27.30;99.90
19025;DHT22;9645;51.448;6.260;2023-09-19T10:54:21;27.20;99.90
19025;DHT22;9645;51.448;6.260;2023-09-19T10:56:53;27.20;99.90
19025;DHT22;9645;51.448;6.260;2023-09-19T10:59:24;27.10;99.90
19025;DHT22;9645;51.448;6.260;2023-09-19T11:02:16;27.40;99.90
19025;DHT22;9645;51.448;6.260;2023-09-19T11:04:44;26.30;99.90
19025;DHT22;9645;51.448;6.260;2023-09-19T11:07:14;26.30;99.90
19025;DHT22;9645;51.448;6.260;2023-09-19T11:09:46;25.60;99.90
19025;DHT22;9645;51.448;6.260;2023-09-19T11:14:55;25.60;99.90
19025;DHT22;9645;51.448;6.260;2023-09-19T11:17:41;25.40;99.90
19025;DHT22;9645;51.448;6.260;2023-09-19T11:20:25;25.50;99.90
19025;DHT22;9645;51.448;6.260;2023-09-19T11:23:20;26.70;99.90
19025;DHT22;9645;51.448;6.260;2023-09-19T11:25:52;27.90;99.90
19025;DHT22;9645;51.448;6.260;2023-09-19T11:28:36;27.20;99.90
19025;DHT22;9645;51.448;6.260;2023-09-19T11:31:42;27.20;99.90
19025;DHT22;9645;51.448;6.260;2023-09-19T11:34:39;27.30;99.90
19025;DHT22;9645;51.448;6.260;2023-09-19T11:40:37;27.00;99.90
19025;DHT22;9645;51.448;6.260;2023-09-19T11:43:32;26.00;99.90
19025;DHT22;9645;51.448;6.260;2023-09-19T11:46:05;24.90;99.90
19025;DHT22;9645;51.448;6.260;2023-09-19T11:48:32;24.30;99.90
19025;DHT22;9645;51.448;6.260;2023-09-19T11:51:00;24.30;99.90
19025;DHT22;9645;51.448;6.260;2023-09-19T11:53:33;25.00;99.90
19025;DHT22;9645;51.448;6.260;2023-09-19T11:56:04;26.10;99.90
19025;DHT22;9645;51.448;6.260;2023-09-19T11:58:33;26.70;99.90
19025;DHT22;9645;51.448;6.260;2023-09-19T12:01:00;26.80;99.90
19025;DHT22;9645;51.448;6.260;2023-09-19T12:03:34;26.50;99.90
19025;DHT22;9645;51.448;6.260;2023-09-19T12:06:12;26.90;99.90
19025;DHT22;9645;51.448;6.260;2023-09-19T12:08:41;26.40;99.90
19025;DHT22;9645;51.448;6.260;2023-09-19T12:11:13;26.30;99.90
19025;DHT22;9645;51.448;6.260;2023-09-19T12:13:44;27.00;99.90
19025;DHT22;9645;51.448;6.260;2023-09-19T12:16:13;25.50;99.90
19025;DHT22;9645;51.448;6.260;2023-09-19T12:18:41;24.90;99.90
19025;DHT22;9645;51.448;6.260;2023-09-19T12:21:23;24.50;99.90
19025;DHT22;9645;51.448;6.260;2023-09-19T12:23:58;24.20;99.90
19025;DHT22;9645;51.448;6.260;2023-09-19T12:26:26;24.20;99.90
19025;DHT22;9645;51.448;6.260;2023-09-19T12:28:54;24.00;99.90
19025;DHT22;9645;51.448;6.260;2023-09-19T12:31:21;23.90;99.90
19025;DHT22;9645;51.448;6.260;2023-09-19T12:33:53;23.90;99.90
19025;DHT22;9645;51.448;6.260;2023-09-19T12:36:22;24.10;99.90
19025;DHT22;9645;51.448;6.260;2023-09-19T12:38:57;24.00;99.90
19025;DHT22;9645;51.448;6.260;2023-09-19T12:41:27;23.10;99.90
19025;DHT22;9645;51.448;6.260;2023-09-19T12:43:54;22.90;99.90
19025;DHT22;9645;51.448;6.260;2023-09-19T12:46:23;22.60;99.90
19025;DHT22;9645;51.448;6.260;2023-09-19T12:49:15;22.40;99.90
19025;DHT22;9645;51.448;6.260;2023-09-19T12:51:45;23.60;99.90
19025;DHT22;9645;51.448;6.260;2023-09-19T12:54:14;21.80;99.90
19025;DHT22;9645;51.448;6.260;2023-09-19T12:56:42;21.70;99.90
19025;DHT22;9645;51.448;6.260;2023-09-19T12:59:13;21.90;99.90
19025;DHT22;9645;51.448;6.260;2023-09-19T13:01:42;22.20;99.90
19025;DHT22;9645;51.448;6.260;2023-09-19T13:04:13;22.40;99.90
19025;DHT22;9645;51.448;6.260;2023-09-19T13:06:45;22.30;99.90
19025;DHT22;9645;51.448;6.260;2023-09-19T13:09:15;21.90;99.90
19025;DHT22;9645;51.448;6.260;2023-09-19T13:11:43;21.80;99.90
19025;DHT22;9645;51.448;6.260;2023-09-19T13:14:18;21.80;99.90
19025;DHT22;9645;51.448;6.260;2023-09-19T13:19:43;21.80;99.90
19025;DHT22;9645;51.448;6.260;2023-09-19T13:22:39;21.70;99.90
19025;DHT22;9645;51.448;6.260;2023-09-19T13:25:08;21.40;99.90
19025;DHT22;9645;51.448;6.260;2023-09-19T13:27:40;21.20;99.90
19025;DHT22;9645;51.448;6.260;2023-09-19T13:30:08;21.20;99.90
19025;DHT22;9645;51.448;6.260;2023-09-19T13:32:35;21.10;99.90
19025;DHT22;9645;51.448;6.260;2023-09-19T13:35:03;20.90;99.90
19025;DHT22;9645;51.448;6.260;2023-09-19T13:37:34;20.90;99.90
19025;DHT22;9645;51.448;6.260;2023-09-19T13:40:06;21.00;99.90
19025;DHT22;9645;51.448;6.260;2023-09-19T13:42:34;20.90;99.90
19025;DHT22;9645;51.448;6.260;2023-09-19T13:45:02;20.70;99.90
19025;DHT22;9645;51.448;6.260;2023-09-19T13:47:30;21.00;99.90
19025;DHT22;9645;51.448;6.260;2023-09-19T13:49:58;21.20;99.90
19025;DHT22;9645;51.448;6.260;2023-09-19T13:52:26;21.00;99.90
19025;DHT22;9645;51.448;6.260;2023-09-19T13:54:55;21.00;99.90
19025;DHT22;9645;51.448;6.260;2023-09-19T13:57:24;21.10;99.90
19025;DHT22;9645;51.448;6.260;2023-09-19T13:59:51;21.10;99.90
19025;DHT22;9645;51.448;6.260;2023-09-19T14:02:20;20.90;99.90
19025;DHT22;9645;51.448;6.260;2023-09-19T14:04:48;20.80;99.90
19025;DHT22;9645;51.448;6.260;2023-09-19T14:07:15;20.70;99.90
19025;DHT22;9645;51.448;6.260;2023-09-19T14:09:45;20.70;99.90
19025;DHT22;9645;51.448;6.260;2023-09-19T14:12:12;20.60;99.90
19025;DHT22;9645;51.448;6.260;2023-09-19T14:14:41;20.60;99.90
19025;DHT22;9645;51.448;6.260;2023-09-19T14:17:08;20.50;99.90
19025;DHT22;9645;51.448;6.260;2023-09-19T14:19:35;20.40;99.90
19025;DHT22;9645;51.448;6.260;2023-09-19T14:22:03;20.30;99.90
19025;DHT22;9645;51.448;6.260;2023-09-19T14:24:33;20.20;99.90
19025;DHT22;9645;51.448;6.260;2023-09-19T14:27:00;20.10;99.90
19025;DHT22;9645;51.448;6.260;2023-09-19T14:29:29;20.00;99.90
19025;DHT22;9645;51.448;6.260;2023-09-19T14:31:58;19.90;99.90
19025;DHT22;9645;51.448;6.260;2023-09-19T14:34:25;19.80;99.90
19025;DHT22;9645;51.448;6.260;2023-09-19T14:36:52;19.80;99.90
19025;DHT22;9645;51.448;6.260;2023-09-19T14:39:20;19.80;99.90
19025;DHT22;9645;51.448;6.260;2023-09-19T14:41:49;19.70;99.90
19025;DHT22;9645;51.448;6.260;2023-09-19T14:44:17;19.80;99.90
19025;DHT22;9645;51.448;6.260;2023-09-19T14:46:45;19.70;99.90
19025;DHT22;9645;51.448;6.260;2023-09-19T14:49:13;19.80;99.90
19025;DHT22;9645;51.448;6.260;2023-09-19T14:51:42;19.70;99.90
19025;DHT22;9645;51.448;6.260;2023-09-19T14:54:09;19.80;99.90
19025;DHT22;9645;51.448;6.260;2023-09-19T14:56:37;19.80;99.90
19025;DHT22;9645;51.448;6.260;2023-09-19T14:59:04;19.90;99.90
19025;DHT22;9645;51.448;6.260;2023-09-19T15:01:32;19.80;99.90
19025;DHT22;9645;51.448;6.260;2023-09-19T15:03:59;19.80;99.90
19025;DHT22;9645;51.448;6.260;2023-09-19T15:06:28;19.80;99.90
19025;DHT22;9645;51.448;6.260;2023-09-19T15:08:55;19.80;99.90
19025;DHT22;9645;51.448;6.260;2023-09-19T15:11:23;20.00;99.90
19025;DHT22;9645;51.448;6.260;2023-09-19T15:13:52;20.10;99.90
19025;DHT22;9645;51.448;6.260;2023-09-19T15:16:19;20.30;99.90
19025;DHT22;9645;51.448;6.260;2023-09-19T15:18:46;20.50;99.90
19025;DHT22;9645;51.448;6.260;2023-09-19T15:21:14;20.50;99.90
19025;DHT22;9645;51.448;6.260;2023-09-19T15:23:43;20.60;99.90
19025;DHT22;9645;51.448;6.260;2023-09-19T15:26:13;20.50;99.90
19025;DHT22;9645;51.448;6.260;2023-09-19T15:28:43;20.40;99.90
19025;DHT22;9645;51.448;6.260;2023-09-19T15:31:11;20.30;99.90
19025;DHT22;9645;51.448;6.260;2023-09-19T15:33:39;20.30;99.90
19025;DHT22;9645;51.448;6.260;2023-09-19T15:36:08;20.10;99.90
19025;DHT22;9645;51.448;6.260;2023-09-19T15:38:56;20.00;99.90
19025;DHT22;9645;51.448;6.260;2023-09-19T15:41:24;19.90;99.90
19025;DHT22;9645;51.448;6.260;2023-09-19T15:43:51;19.80;99.90
19025;DHT22;9645;51.448;6.260;2023-09-19T15:46:19;19.80;99.90
19025;DHT22;9645;51.448;6.260;2023-09-19T15:48:45;19.70;99.90
19025;DHT22;9645;51.448;6.260;2023-09-19T15:51:13;19.80;99.90
19025;DHT22;9645;51.448;6.260;2023-09-19T15:53:43;19.00;99.90
19025;DHT22;9645;51.448;6.260;2023-09-19T15:56:12;19.80;99.90
19025;DHT22;9645;51.448;6.260;2023-09-19T15:58:40;19.90;99.90
19025;DHT22;9645;51.448;6.260;2023-09-19T16:01:07;19.90;99.90
19025;DHT22;9645;51.448;6.260;2023-09-19T16:03:35;20.00;99.90
19025;DHT22;9645;51.448;6.260;2023-09-19T16:06:08;20.00;99.90
19025;DHT22;9645;51.448;6.260;2023-09-19T16:08:35;20.00;99.90
19025;DHT22;9645;51.448;6.260;2023-09-19T16:11:03;20.00;99.90
19025;DHT22;9645;51.448;6.260;2023-09-19T16:13:32;20.00;99.90
19025;DHT22;9645;51.448;6.260;2023-09-19T16:15:59;20.00;99.90
19025;DHT22;9645;51.448;6.260;2023-09-19T16:18:26;20.00;99.90
19025;DHT22;9645;51.448;6.260;2023-09-19T16:20:53;19.90;99.90
19025;DHT22;9645;51.448;6.260;2023-09-19T16:23:20;19.80;99.90
19025;DHT22;9645;51.448;6.260;2023-09-19T16:25:47;19.70;99.90
19025;DHT22;9645;51.448;6.260;2023-09-19T16:28:14;19.60;99.90
19025;DHT22;9645;51.448;6.260;2023-09-19T16:30:42;19.50;99.90
19025;DHT22;9645;51.448;6.260;2023-09-19T16:33:09;19.50;99.90
19025;DHT22;9645;51.448;6.260;2023-09-19T16:35:38;20.00;99.90
19025;DHT22;9645;51.448;6.260;2023-09-19T16:38:05;19.40;99.90
19025;DHT22;9645;51.448;6.260;2023-09-19T16:43:00;19.40;99.90
19025;DHT22;9645;51.448;6.260;2023-09-19T16:45:27;19.40;99.90
19025;DHT22;9645;51.448;6.260;2023-09-19T16:47:56;19.30;99.90
19025;DHT22;9645;51.448;6.260;2023-09-19T16:50:23;19.30;99.90
19025;DHT22;9645;51.448;6.260;2023-09-19T16:52:50;19.30;99.90
19025;DHT22;9645;51.448;6.260;2023-09-19T16:55:17;19.20;99.90
19025;DHT22;9645;51.448;6.260;2023-09-19T16:57:46;19.20;99.90
19025;DHT22;9645;51.448;6.260;2023-09-19T17:00:14;19.10;99.90
19025;DHT22;9645;51.448;6.260;2023-09-19T17:02:46;19.10;99.90
19025;DHT22;9645;51.448;6.260;2023-09-19T17:05:15;19.10;99.90
19025;DHT22;9645;51.448;6.260;2023-09-19T17:07:43;19.10;99.90
19025;DHT22;9645;51.448;6.260;2023-09-19T17:10:10;19.10;99.90
19025;DHT22;9645;51.448;6.260;2023-09-19T17:12:37;19.00;99.90
19025;DHT22;9645;51.448;6.260;2023-09-19T17:15:06;19.00;99.90
19025;DHT22;9645;51.448;6.260;2023-09-19T17:17:33;19.00;99.90
19025;DHT22;9645;51.448;6.260;2023-09-19T17:20:00;19.00;99.90
19025;DHT22;9645;51.448;6.260;2023-09-19T17:22:29;18.90;99.90
19025;DHT22;9645;51.448;6.260;2023-09-19T17:24:56;19.00;99.90
19025;DHT22;9645;51.448;6.260;2023-09-19T17:27:24;18.90;99.90
19025;DHT22;9645;51.448;6.260;2023-09-19T17:29:51;18.90;99.90
19025;DHT22;9645;51.448;6.260;2023-09-19T17:32:18;18.80;99.90
19025;DHT22;9645;51.448;6.260;2023-09-19T17:34:48;18.70;99.90
19025;DHT22;9645;51.448;6.260;2023-09-19T17:37:15;18.80;99.90
19025;DHT22;9645;51.448;6.260;2023-09-19T17:39:46;18.70;99.90
19025;DHT22;9645;51.448;6.260;2023-09-19T17:42:12;18.70;99.90
19025;DHT22;9645;51.448;6.260;2023-09-19T17:44:40;18.80;99.90
19025;DHT22;9645;51.448;6.260;2023-09-19T17:47:07;18.70;99.90
19025;DHT22;9645;51.448;6.260;2023-09-19T17:49:34;18.70;99.90
19025;DHT22;9645;51.448;6.260;2023-09-19T17:52:01;18.70;99.90
19025;DHT22;9645;51.448;6.260;2023-09-19T17:54:30;18.70;99.90
19025;DHT22;9645;51.448;6.260;2023-09-19T17:56:59;18.70;99.90
19025;DHT22;9645;51.448;6.260;2023-09-19T17:59:27;18.70;99.90
19025;DHT22;9645;51.448;6.260;2023-09-19T18:01:57;18.60;99.90
19025;DHT22;9645;51.448;6.260;2023-09-19T18:04:24;18.60;99.90
19025;DHT22;9645;51.448;6.260;2023-09-19T18:06:51;18.60;99.90
19025;DHT22;9645;51.448;6.260;2023-09-19T18:09:22;18.60;99.90
19025;DHT22;9645;51.448;6.260;2023-09-19T18:11:49;18.60;99.90
19025;DHT22;9645;51.448;6.260;2023-09-19T18:14:17;18.60;99.90
19025;DHT22;9645;51.448;6.260;2023-09-19T18:16:45;18.50;99.90
19025;DHT22;9645;51.448;6.260;2023-09-19T18:19:13;18.50;99.90
19025;DHT22;9645;51.448;6.260;2023-09-19T18:21:41;18.60;99.90
19025;DHT22;9645;51.448;6.260;2023-09-19T18:24:12;18.50;99.90
19025;DHT22;9645;51.448;6.260;2023-09-19T18:26:42;18.50;99.90
19025;DHT22;9645;51.448;6.260;2023-09-19T18:29:12;18.50;99.90
19025;DHT22;9645;51.448;6.260;2023-09-19T18:31:41;18.50;99.90
19025;DHT22;9645;51.448;6.260;2023-09-19T18:34:10;18.40;99.90
19025;DHT22;9645;51.448;6.260;2023-09-19T18:36:37;18.50;99.90
19025;DHT22;9645;51.448;6.260;2023-09-19T18:39:05;18.50;99.90
19025;DHT22;9645;51.448;6.260;2023-09-19T18:41:33;18.40;99.90
19025;DHT22;9645;51.448;6.260;2023-09-19T18:44:05;16.20;99.90
